Latest Weather Observations for Badgerys Creek

IDN60801

Issued at 10:05 pm EST Monday 21 April 2014 (issued every 30 minutes, with the page automatically refreshed every 10 minutes)

About weather observations | Map of weather stations | Latest weather observations for NSW | Other Formats
Station Details ID: 067108 Name: BADGERYS CREEK AWS Lat: -33.90 Lon: 150.73 Height: 81.2 m
Data from the previous 72 hours. | See also: Recent months at Badgerys Creek
Date/Time
EST
Temp
°C
App
Temp
°C
Dew
Point
Rel
Hum
%
Delta-T
°C
Wind Press
QNH
hPa
Press
MSL
hPa
Rain
since 9 am
mm
Dir
 
Spd
km/h
Gust
km/h
Spd
kts
Gust
kts
21/10:00pm 11.6 10.9 9.9 89 0.9 NW 4 6 2 3 1020.5 1020.3 0.0
21/09:30pm 11.6 10.7 9.3 86 1.2 NW 4 6 2 3 1020.6 - 0.0
21/09:00pm 12.6 11.7 9.1 79 1.8 NW 4 4 2 2 1020.6 1020.4 0.0
21/08:30pm 12.5 11.2 9.3 81 1.6 NW 6 7 3 4 1020.5 - 0.0
21/08:00pm 14.0 13.9 9.4 74 2.4 CALM 0 0 0 0 1020.3 1020.1 0.0
21/07:30pm 14.6 14.5 9.6 72 2.6 CALM 0 0 0 0 1020.2 - 0.0
21/07:00pm 14.2 13.4 9.8 75 2.3 E 4 6 2 3 1020.1 1019.9 0.0
21/06:30pm 15.8 15.6 9.2 65 3.4 CALM 0 0 0 0 1019.6 - 0.0
21/06:00pm 17.1 16.5 9.0 59 4.2 NW 2 4 1 2 1019.3 1019.1 0.0
21/05:30pm 18.7 17.3 8.7 52 5.2 NW 6 7 3 4 1019.1 - 0.0
21/05:00pm 19.8 18.9 10.5 55 5.0 N 6 7 3 4 1018.9 1018.7 0.0
21/04:30pm 20.7 19.3 9.0 47 6.2 N 6 7 3 4 1018.7 - 0.0
21/04:00pm 21.3 19.7 7.9 42 7.0 NNE 6 9 3 5 1018.7 1018.5 0.0
21/03:30pm 21.7 20.3 7.2 39 7.5 NNE 4 7 2 4 1018.8 - 0.0
21/03:00pm 21.8 20.0 7.2 39 7.5 N 6 9 3 5 1018.8 1018.6 0.0
21/02:30pm 22.4 21.9 9.2 43 7.1 WNW 2 6 1 3 1018.8 - 0.0
21/02:00pm 21.3 19.5 7.9 42 7.0 N 7 11 4 6 1018.9 1018.7 0.0
21/01:30pm 21.7 20.0 8.2 42 7.1 NNE 7 15 4 8 1019.0 - 0.0
21/01:00pm 21.3 20.2 8.6 44 6.7 W 4 11 2 6 1019.3 1019.1 0.0
21/12:30pm 21.1 19.6 8.4 44 6.7 N 6 9 3 5 1019.7 - 0.0
21/12:00pm 21.0 20.2 8.0 43 6.8 NNW 2 6 1 3 1020.2 1020.0 0.0
21/11:30am 20.7 19.5 8.0 44 6.6 NNW 4 6 2 3 1020.6 - 0.0
21/11:00am 19.5 18.3 7.9 47 6.0 W 4 7 2 4 1020.9 1020.7 0.0
21/10:30am 18.4 17.4 8.7 53 5.0 SW 4 9 2 5 1021.0 - 0.0
21/10:00am 17.5 15.8 8.4 55 4.7 WSW 7 13 4 7 1021.1 1020.9 0.0
21/09:30am 16.3 13.7 7.8 57 4.3 WSW 11 17 6 9 1021.5 - 0.0
21/09:00am 15.6 13.7 7.6 59 4.0 W 7 13 4 7 1021.5 1021.3 0.0
21/08:30am 14.2 12.5 7.5 64 3.3 W 6 9 3 5 1021.4 - 0.0
21/08:00am 12.4 10.7 7.5 72 2.4 SW 6 7 3 4 1021.3 1021.1 0.0
21/07:30am 9.5 8.3 7.9 90 0.8 WSW 4 6 2 3 1021.0 - 0.0
21/07:00am 7.6 6.0 6.2 91 0.6 WSW 4 6 2 3 1020.7 1020.5 0.0
21/06:30am 7.9 5.8 5.7 86 1.0 WSW 6 6 3 3 1020.3 - 0.0
21/06:00am 8.5 6.4 5.6 82 1.3 SW 6 7 3 4 1020.0 1019.8 0.0
21/05:30am 8.6 6.5 5.7 82 1.3 SW 6 6 3 3 1019.8 - 0.0
21/05:00am 10.2 8.7 5.2 71 2.3 SSW 2 4 1 2 1019.4 1019.2 0.0
21/04:30am 10.8 9.4 5.3 69 2.5 SSW 2 4 1 2 1019.0 - 0.0
21/04:00am 10.4 8.7 6.0 74 2.0 SSW 4 6 2 3 1018.8 1018.6 0.0
21/03:30am 10.6 9.7 6.2 74 2.1 CALM 0 0 0 0 1018.5 - 0.0
21/03:00am 10.5 8.6 6.5 76 1.9 SSW 6 7 3 4 1018.5 1018.3 0.0
21/02:30am 12.1 10.4 5.9 66 2.9 S 4 6 2 3 1018.5 - 0.0
21/02:00am 12.3 10.1 6.1 66 2.9 S 7 11 4 6 1018.5 1018.3 0.0
21/01:30am 12.7 10.1 6.3 65 3.0 SSW 9 13 5 7 1018.6 - 0.0
21/01:00am 13.2 10.3 6.5 64 3.2 SSW 11 15 6 8 1018.4 1018.2 0.0
21/12:30am 13.6 10.8 6.9 64 3.3 SSW 11 15 6 8 1018.2 - 0.0
21/12:00am 13.8 11.1 7.3 65 3.2 SSW 11 17 6 9 1018.3 1018.1 0.0
 
Date/Time
EST
Temp
°C
App
Temp
°C
Dew
Point
Rel
Hum
%
Delta-T
°C
Wind Press
QNH
hPa
Press
MSL
hPa
Rain
since 9 am
mm
Dir
 
Spd
km/h
Gust
km/h
Spd
kts
Gust
kts
20/11:30pm 14.1 11.5 7.9 66 3.1 SSW 11 17 6 9 1018.2 - 0.0
20/11:00pm 14.5 12.1 8.5 67 3.0 SSW 11 15 6 8 1018.2 1018.0 0.0
20/10:30pm 14.1 12.5 10.1 77 2.1 SW 9 13 5 7 1018.2 - 0.0
20/10:00pm 14.0 12.2 11.0 82 1.6 SW 11 13 6 7 1018.1 1017.9 0.0
20/09:30pm 14.4 13.2 11.7 84 1.5 SW 9 11 5 6 1017.8 - 0.0
20/09:00pm 14.3 13.7 12.2 87 1.1 SW 7 11 4 6 1017.2 1017.1 0.0
20/08:30pm 14.2 13.5 12.1 87 1.1 SW 7 9 4 5 1017.0 - 0.0
20/08:00pm 15.0 15.6 11.8 81 1.7 CALM 0 0 0 0 1016.6 1016.5 0.0
20/07:30pm 16.2 16.5 12.2 77 2.2 E 2 2 1 1 1016.3 - 0.0
20/07:00pm 16.4 16.2 11.8 74 2.5 ESE 4 6 2 3 1016.0 1015.9 0.0
20/06:30pm 16.9 17.5 11.8 72 2.8 CALM 0 0 0 0 1015.6 - 0.0
20/06:00pm 18.3 18.9 11.8 66 3.6 CALM 0 0 0 0 1015.2 1015.1 0.0
20/05:30pm 20.4 20.6 11.9 58 4.7 N 2 4 1 2 1015.0 - 0.0
20/05:00pm 20.9 20.5 12.3 58 4.8 N 6 7 3 4 1014.7 1014.6 0.0
20/04:30pm 22.0 21.4 11.7 52 5.8 N 6 9 3 5 1014.5 - 0.0
20/04:00pm 22.6 21.7 11.4 49 6.3 NNE 7 13 4 7 1014.4 1014.3 0.0
20/03:30pm 22.7 22.1 11.7 49 6.2 N 6 11 3 6 1014.4 - 0.0
20/03:00pm 22.5 21.2 11.3 49 6.3 NNE 9 15 5 8 1014.5 1014.4 0.0
20/02:30pm 22.7 21.8 11.4 49 6.3 NNE 7 15 4 8 1014.6 - 0.0
20/02:00pm 22.5 20.8 11.3 49 6.3 NNE 11 19 6 10 1014.6 1014.5 0.0
20/01:30pm 22.1 20.7 10.9 49 6.2 N 9 17 5 9 1014.8 - 0.0
20/01:00pm 22.0 20.1 11.7 52 5.8 NNE 13 22 7 12 1015.0 1014.9 0.0
20/12:30pm 22.1 20.0 12.4 54 5.5 NNE 15 20 8 11 1015.4 - 0.0
20/12:00pm 21.5 19.3 12.1 55 5.3 NNE 15 19 8 10 1016.2 1016.1 0.0
20/11:30am 20.8 19.2 11.4 55 5.2 NNE 11 15 6 8 1016.9 - 0.0
20/11:00am 19.9 18.5 10.9 56 4.9 NNE 9 13 5 7 1017.6 1017.4 0.0
20/10:30am 19.3 18.4 10.6 57 4.7 N 6 9 3 5 1017.9 - 0.0
20/10:00am 19.0 18.9 10.8 59 4.4 NW 2 6 1 3 1018.2 1018.0 0.0
20/09:30am 18.1 18.3 11.9 67 3.4 WSW 2 4 1 2 1018.4 - 0.0
20/09:00am 15.5 15.0 10.9 74 2.4 SW 4 6 2 3 1018.6 1018.4 0.0
20/08:30am 13.4 13.8 11.1 86 1.2 CALM 0 0 0 0 1018.5 - 0.0
20/08:00am 11.4 11.6 10.6 95 0.4 CALM 0 0 0 0 1018.4 1018.2 0.0
20/07:30am 10.2 10.2 9.9 98 0.2 CALM 0 0 0 0 1018.3 - 0.0
20/07:00am 9.1 8.8 8.6 97 0.2 CALM 0 0 0 0 1018.0 1017.8 0.0
20/06:30am 9.0 8.3 8.6 97 0.2 WSW 2 4 1 2 1017.6 - 0.0
20/06:00am 8.6 7.0 8.0 96 0.3 SW 6 7 3 4 1017.5 1017.3 0.0
20/05:30am 9.1 8.7 8.3 95 0.4 CALM 0 0 0 0 1017.2 - 0.0
20/05:00am 9.6 9.1 8.0 90 0.8 CALM 0 0 0 0 1016.9 1016.8 0.0
20/04:30am 9.9 9.6 8.7 92 0.6 CALM 0 0 0 0 1017.0 - 0.0
20/04:00am 10.1 9.7 8.2 88 0.9 CALM 0 0 0 0 1016.8 1016.7 0.0
20/03:30am 10.7 10.4 8.5 86 1.1 CALM 0 0 0 0 1016.8 - 0.0
20/03:00am 11.7 11.1 8.9 83 1.4 WSW 2 4 1 2 1017.1 1017.0 0.0
20/02:30am 11.4 9.8 8.6 83 1.4 WSW 7 7 4 4 1017.1 - 0.0
20/02:00am 11.6 10.1 9.0 84 1.3 S 7 9 4 5 1017.2 1017.1 0.0
20/01:30am 11.7 10.4 9.1 84 1.3 S 6 6 3 3 1017.7 - 0.0
20/01:00am 11.1 9.7 8.8 86 1.1 S 6 7 3 4 1017.9 1017.7 0.0
20/12:30am 11.4 9.8 8.8 84 1.3 S 7 9 4 5 1018.0 - 0.0
20/12:00am 12.0 10.8 9.4 84 1.3 S 6 7 3 4 1018.3 1018.1 0.0
 
Date/Time
EST
Temp
°C
App
Temp
°C
Dew
Point
Rel
Hum
%
Delta-T
°C
Wind Press
QNH
hPa
Press
MSL
hPa
Rain
since 9 am
mm
Dir
 
Spd
km/h
Gust
km/h
Spd
kts
Gust
kts
19/11:30pm 12.4 11.3 9.8 84 1.3 S 6 7 3 4 1018.3 - 0.0
19/11:00pm 12.1 11.0 10.0 87 1.1 S 6 7 3 4 1018.4 1018.2 0.0
19/10:30pm 11.8 10.6 9.7 87 1.1 S 6 6 3 3 1018.5 - 0.0
19/10:00pm 11.7 10.5 9.6 87 1.1 S 6 7 3 4 1018.6 1018.4 0.0
19/09:30pm 12.1 10.8 9.1 82 1.5 S 6 7 3 4 1018.6 - 0.0
19/09:00pm 12.6 11.6 8.9 78 1.9 S 4 7 2 4 1018.4 1018.2 0.0
19/08:30pm 13.0 12.1 9.3 78 1.9 S 4 6 2 3 1018.2 - 0.0
19/08:00pm 14.0 13.1 9.2 73 2.4 S 4 6 2 3 1018.0 1017.8 0.0
19/07:30pm 14.5 13.7 9.7 73 2.5 S 4 6 2 3 1017.6 - 0.0
19/07:00pm 15.2 14.4 9.8 70 2.8 S 4 6 2 3 1017.2 1017.1 0.0
19/06:30pm 15.6 14.8 9.5 67 3.2 S 4 4 2 2 1016.8 - 0.0
19/06:00pm 16.2 15.1 8.4 60 4.0 S 4 4 2 2 1016.4 1016.3 0.0
19/05:30pm 16.5 14.7 8.0 57 4.3 SE 7 13 4 7 1015.9 - 0.0
19/05:00pm 17.5 14.7 8.4 55 4.7 SE 13 20 7 11 1015.5 1015.4 0.0
19/04:30pm 18.2 15.4 8.7 54 4.9 SE 13 22 7 12 1015.1 - 0.0
19/04:00pm 19.1 16.0 8.7 51 5.4 ESE 15 22 8 12 1014.7 1014.6 0.0
19/03:30pm 19.9 16.5 9.2 50 5.7 ESE 17 24 9 13 1014.5 - 0.0
19/03:00pm 20.3 17.4 9.5 50 5.8 SE 15 20 8 11 1014.4 1014.3 0.0
19/02:30pm 20.5 17.6 9.7 50 5.8 ESE 15 22 8 12 1014.3 - 0.0
19/02:00pm 22.4 21.2 10.2 46 6.7 E 7 13 4 7 1014.2 1014.1 0.0
19/01:30pm 22.6 22.4 10.4 46 6.7 ENE 2 6 1 3 1014.2 - 0.0
19/01:00pm 22.0 21.4 10.5 48 6.3 ENE 4 7 2 4 1014.5 1014.4 0.0
19/12:30pm 21.2 20.0 10.4 50 5.9 S 7 11 4 6 1015.0 - 0.0
19/12:00pm 20.6 19.4 10.4 52 5.5 SSE 7 13 4 7 1015.5 1015.4 0.0
19/11:30am 20.9 20.6 11.3 54 5.3 ESE 4 7 2 4 1015.8 - 0.0
19/11:00am 20.1 19.1 11.1 56 4.9 SSW 7 13 4 7 1016.2 1016.1 0.0
19/10:30am 19.4 18.4 10.9 58 4.6 SSE 7 15 4 8 1016.5 - 0.0
19/10:00am 18.8 17.5 11.4 62 4.1 SSE 9 15 5 8 1016.6 1016.5 0.0
19/09:30am 17.8 16.5 11.1 65 3.6 SSE 9 13 5 7 1016.7 - 0.0
19/09:00am 17.0 15.8 11.5 70 3.0 S 9 13 5 7 1016.7 1016.6 0.0
19/08:30am 15.7 15.5 11.7 77 2.2 WSW 4 6 2 3 1016.9 - 0.0
19/08:00am 14.4 15.1 12.1 86 1.2 CALM 0 0 0 0 1016.7 1016.6 0.0
19/07:30am 12.4 12.0 11.0 91 0.7 WNW 4 6 2 3 1016.5 - 0.0
19/07:00am 11.2 10.6 10.4 95 0.4 WNW 4 6 2 3 1016.3 1016.2 0.0
19/06:30am 9.7 8.2 9.1 96 0.3 SW 7 9 4 5 1015.9 - 0.0
19/06:00am 9.8 8.4 8.9 94 0.4 WSW 6 9 3 5 1015.8 1015.7 0.0
19/05:30am 10.4 10.2 9.0 91 0.7 CALM 0 4 0 2 1015.5 - 0.0
19/05:00am 11.1 9.9 9.7 91 0.7 SW 6 7 3 4 1015.3 1015.2 0.0
19/04:30am 10.9 9.6 9.3 90 0.8 WSW 6 7 3 4 1015.1 - 0.0
19/04:00am 10.6 9.3 9.2 91 0.7 SW 6 7 3 4 1014.8 1014.7 0.0
19/03:30am 11.7 10.9 9.8 88 1.0 SW 4 6 2 3 1014.8 - 0.0
19/03:00am 11.7 11.3 9.6 87 1.1 SW 2 7 1 4 1014.7 1014.6 0.0
19/02:30am 12.3 11.5 9.5 83 1.4 SSW 4 4 2 2 1014.7 - 0.0
19/02:00am 13.0 11.7 9.8 81 1.6 S 7 9 4 5 1014.6 1014.5 0.0
19/01:30am 11.5 11.3 9.1 85 1.2 CALM 0 0 0 0 1014.6 - 0.0
19/01:00am 12.1 11.8 10.0 87 1.1 S 2 4 1 2 1014.3 1014.2 0.0
19/12:30am 12.0 11.1 9.4 84 1.3 S 4 6 2 3 1014.2 - 0.0
19/12:00am 12.3 11.6 9.9 85 1.2 SW 4 6 2 3 1014.1 1014.0 0.0
 
Date/Time
EST
Temp
°C
App
Temp
°C
Dew
Point
Rel
Hum
%
Delta-T
°C
Wind Press
QNH
hPa
Press
MSL
hPa
Rain
since 9 am
mm
Dir
 
Spd
km/h
Gust
km/h
Spd
kts
Gust
kts
18/11:30pm 12.3 11.8 9.5 83 1.4 S 2 6 1 3 1014.0 - 0.0
18/11:00pm 13.4 13.0 9.6 78 2.0 W 2 6 1 3 1014.0 1013.9 0.0
18/10:30pm 14.8 13.7 9.8 72 2.6 WNW 6 9 3 5 1014.2 - 0.0

Other Formats:

Comma delimited format used in spreadsheet applications
http://www.bom.gov.au/fwo/IDN60801/IDN60801.94752.axf

JavaScript Object Notation format (JSON) in row-major order
http://www.bom.gov.au/fwo/IDN60801/IDN60801.94752.json